Time;durP1;ratioP1;P1;durP2;ratioP2;P2;SDS_P1;SDS_P2;PMS_P1;PMS_P2;Temp;Humidity;BMP_temperature;BMP_pressure;BME280_temperature;BME280_humidity;BME280_pressure;Samples;Min_cycle;Max_cycle;Signal;HPM_P1;HPM_P2
2023/01/22 00:01:39;;;;;;;1999.90;999.90;;;0.60;99.90;;;;;;5071122;28;20198;-70
2023/01/22 00:04:04;;;;;;;1999.90;999.90;;;0.60;99.90;;;;;;5071251;28;20281;-70
2023/01/22 00:06:30;;;;;;;1999.90;999.90;;;0.70;99.90;;;;;;5074672;28;20175;-70
2023/01/22 00:08:56;;;;;;;1999.90;999.90;;;0.70;99.90;;;;;;5074653;28;20250;-70
2023/01/22 00:11:22;;;;;;;1999.90;999.90;;;0.60;99.90;;;;;;5074627;28;20273;-69
2023/01/22 00:13:47;;;;;;;1999.90;999.90;;;0.70;99.90;;;;;;5074607;28;20190;-70
2023/01/22 00:16:15;;;;;;;1999.90;999.90;;;0.70;99.90;;;;;;5074580;28;20175;-70
2023/01/22 00:18:41;;;;;;;1999.90;999.90;;;0.70;99.90;;;;;;5074604;28;20175;-70
2023/01/22 00:21:07;;;;;;;1999.90;999.90;;;0.60;99.90;;;;;;5074295;28;20202;-70
2023/01/22 00:23:32;;;;;;;1999.90;999.90;;;0.60;99.90;;;;;;5074393;28;20518;-69
2023/01/22 00:26:09;;;;;;;1999.90;999.90;;;0.60;99.90;;;;;;5074393;28;20171;-70
2023/01/22 00:28:36;;;;;;;1999.90;999.90;;;0.60;99.90;;;;;;5074442;28;20659;-69
2023/01/22 00:31:03;;;;;;;1999.90;999.90;;;0.70;99.90;;;;;;5074062;28;20218;-69
2023/01/22 00:33:29;;;;;;;1999.90;999.90;;;0.70;99.90;;;;;;5073996;28;20567;-69
2023/01/22 00:35:56;;;;;;;1999.90;999.90;;;0.80;99.90;;;;;;5074097;28;20179;-68
2023/01/22 00:38:22;;;;;;;1999.90;999.90;;;0.80;99.90;;;;;;5074155;28;20297;-69
2023/01/22 00:40:47;;;;;;;1999.90;999.90;;;0.90;99.90;;;;;;5073849;28;20290;-69
2023/01/22 00:43:13;;;;;;;1999.90;999.90;;;1.00;99.90;;;;;;5073997;28;20210;-69
2023/01/22 00:45:38;;;;;;;1999.90;999.90;;;1.00;99.90;;;;;;5074057;28;20580;-69
2023/01/22 00:48:04;;;;;;;1999.90;999.90;;;1.00;99.90;;;;;;5073949;28;20250;-69
2023/01/22 00:50:30;;;;;;;1999.90;999.90;;;0.90;99.90;;;;;;5073738;28;20171;-69
2023/01/22 00:52:56;;;;;;;1999.90;999.90;;;1.00;99.90;;;;;;5073799;28;20431;-69
2023/01/22 00:55:22;;;;;;;1999.90;999.90;;;1.00;99.90;;;;;;5073714;28;20238;-69
2023/01/22 00:57:47;;;;;;;1999.90;999.90;;;1.00;99.90;;;;;;5073989;28;20179;-69
2023/01/22 01:00:14;;;;;;;1999.90;999.90;;;1.00;99.90;;;;;;5073582;28;20246;-71
2023/01/22 01:05:25;;;;;;;1999.90;999.90;;;1.00;99.90;;;;;;5074025;28;20544;-70
2023/01/22 01:07:50;;;;;;;1999.90;999.90;;;1.00;99.90;;;;;;5073601;28;20190;-70
2023/01/22 01:10:16;;;;;;;1999.90;999.90;;;1.10;99.90;;;;;;5073353;28;20653;-70
2023/01/22 01:12:42;;;;;;;1999.90;999.90;;;1.20;99.90;;;;;;5073428;28;20203;-70
2023/01/22 01:15:08;;;;;;;1999.90;999.90;;;1.20;99.90;;;;;;5073251;28;20250;-70
2023/01/22 01:17:34;;;;;;;1999.90;999.90;;;1.10;99.90;;;;;;5073303;28;20207;-70
2023/01/22 01:20:00;;;;;;;1999.90;999.90;;;1.10;99.90;;;;;;5073128;28;20213;-70
2023/01/22 01:22:26;;;;;;;1999.90;999.90;;;1.10;99.90;;;;;;5073141;28;20222;-70
2023/01/22 01:24:51;;;;;;;1999.90;999.90;;;1.10;99.90;;;;;;5073212;28;20167;-70
2023/01/22 01:27:17;;;;;;;1999.90;999.90;;;1.10;99.90;;;;;;5073150;28;20603;-70
2023/01/22 01:29:42;;;;;;;1999.90;999.90;;;1.10;99.90;;;;;;5072928;28;20167;-70
2023/01/22 01:32:08;;;;;;;1999.90;999.90;;;1.10;99.90;;;;;;5072952;28;20171;-70
2023/01/22 01:34:34;;;;;;;1999.90;999.90;;;1.10;99.90;;;;;;5073058;28;20198;-70
2023/01/22 01:36:59;;;;;;;1999.90;999.90;;;1.20;99.90;;;;;;5072876;28;20183;-70
2023/01/22 01:39:25;;;;;;;1999.90;999.90;;;1.20;99.90;;;;;;5072708;28;20203;-71
2023/01/22 01:41:51;;;;;;;1999.90;999.90;;;1.20;99.90;;;;;;5072842;28;20198;-70
2023/01/22 01:44:19;;;;;;;1999.90;999.90;;;1.20;99.90;;;;;;5072737;28;20240;-71
2023/01/22 01:47:04;;;;;;;1999.90;999.90;;;1.20;99.90;;;;;;5072676;28;20656;-70
2023/01/22 01:49:49;;;;;;;1999.90;999.90;;;1.10;99.90;;;;;;5072748;28;20186;-70
2023/01/22 01:52:15;;;;;;;1999.90;999.90;;;1.20;99.90;;;;;;5072583;28;20174;-70
2023/01/22 01:54:46;;;;;;;1999.90;999.90;;;1.20;99.90;;;;;;5073040;28;20675;-69
2023/01/22 01:57:17;;;;;;;1999.90;999.90;;;1.20;99.90;;;;;;5072701;28;20183;-70
2023/01/22 01:59:46;;;;;;;1999.90;999.90;;;1.20;99.90;;;;;;5072404;28;20648;-69
2023/01/22 02:02:12;;;;;;;1999.90;999.90;;;1.30;99.90;;;;;;5072403;28;20207;-69
2023/01/22 02:04:38;;;;;;;1999.90;999.90;;;1.20;99.90;;;;;;5072561;28;20182;-69
2023/01/22 02:07:04;;;;;;;1999.90;999.90;;;1.30;99.90;;;;;;5072383;28;20194;-69
2023/01/22 02:09:31;;;;;;;1999.90;999.90;;;1.20;99.90;;;;;;5072172;28;20164;-69
2023/01/22 02:11:56;;;;;;;1999.90;999.90;;;1.20;99.90;;;;;;5072390;28;20174;-71
2023/01/22 02:14:28;;;;;;;1999.90;999.90;;;1.20;99.90;;;;;;5072321;28;20210;-69
2023/01/22 02:17:00;;;;;;;1999.90;999.90;;;1.10;99.90;;;;;;5072390;28;20601;-69
2023/01/22 02:19:26;;;;;;;1999.90;999.90;;;1.10;99.90;;;;;;5072168;28;20246;-69
2023/01/22 02:21:52;;;;;;;1999.90;999.90;;;1.10;99.90;;;;;;5072154;28;20727;-69
2023/01/22 02:24:17;;;;;;;1999.90;999.90;;;1.10;99.90;;;;;;5072073;28;20191;-69
2023/01/22 02:26:44;;;;;;;1999.90;999.90;;;1.10;99.90;;;;;;5072010;28;20162;-70
2023/01/22 02:29:12;;;;;;;1999.90;999.90;;;1.10;99.90;;;;;;5071807;28;20167;-70
2023/01/22 02:31:39;;;;;;;1999.90;999.90;;;1.10;99.90;;;;;;5072103;28;20186;-70
2023/01/22 02:34:06;;;;;;;1999.90;999.90;;;1.10;99.90;;;;;;5071908;28;20624;-70
2023/01/22 02:36:33;;;;;;;1999.90;999.90;;;1.10;99.90;;;;;;5071888;28;20173;-70
2023/01/22 02:38:59;;;;;;;1999.90;999.90;;;1.10;99.90;;;;;;5072002;28;20174;-70
2023/01/22 02:41:26;;;;;;;1999.90;999.90;;;1.00;99.90;;;;;;5071904;28;20203;-70
2023/01/22 02:43:51;;;;;;;1999.90;999.90;;;0.90;99.90;;;;;;5071913;28;20185;-70
2023/01/22 02:46:17;;;;;;;1999.90;999.90;;;1.00;99.90;;;;;;5071770;28;20168;-70
2023/01/22 02:48:43;;;;;;;1999.90;999.90;;;1.00;99.90;;;;;;5071947;28;20167;-70
2023/01/22 02:51:08;;;;;;;1999.90;999.90;;;0.90;99.90;;;;;;5071641;28;20510;-70
2023/01/22 02:53:34;;;;;;;1999.90;999.90;;;0.90;99.90;;;;;;5071800;28;20202;-71
2023/01/22 02:56:03;;;;;;;1999.90;999.90;;;0.90;99.90;;;;;;5071942;28;20206;-70
2023/01/22 02:58:29;;;;;;;1999.90;999.90;;;0.80;99.90;;;;;;5071820;28;20167;-70
2023/01/22 03:00:54;;;;;;;1999.90;999.90;;;0.80;99.90;;;;;;5071544;28;20205;-71
2023/01/22 03:03:20;;;;;;;1999.90;999.90;;;0.80;99.90;;;;;;5071724;28;20186;-71
2023/01/22 03:05:50;;;;;;;1999.90;999.90;;;0.80;99.90;;;;;;5071992;28;20170;-70
2023/01/22 03:08:17;;;;;;;1999.90;999.90;;;0.90;99.90;;;;;;5071657;28;20178;-71
2023/01/22 03:10:43;;;;;;;1999.90;999.90;;;0.90;99.90;;;;;;5071535;28;20159;-71
2023/01/22 03:21:21;;;;;;;1999.90;999.90;;;0.90;99.90;;;;;;5071572;28;20205;-71
2023/01/22 03:23:50;;;;;;;1999.90;999.90;;;0.90;99.90;;;;;;5071547;28;20187;-71
2023/01/22 03:26:16;;;;;;;1999.90;999.90;;;0.90;99.90;;;;;;5071506;28;20167;-71
2023/01/22 03:28:41;;;;;;;1999.90;999.90;;;0.90;99.90;;;;;;5071472;28;20171;-71
2023/01/22 03:31:08;;;;;;;1999.90;999.90;;;0.90;99.90;;;;;;5071396;28;20167;-71
2023/01/22 03:33:34;;;;;;;1999.90;999.90;;;0.90;99.90;;;;;;5071314;28;20799;-71
2023/01/22 03:36:05;;;;;;;1999.90;999.90;;;0.90;99.90;;;;;;5071255;28;20185;-71
2023/01/22 03:38:30;;;;;;;1999.90;999.90;;;0.90;99.90;;;;;;5071451;28;20405;-71
2023/01/22 03:41:02;;;;;;;1999.90;999.90;;;0.90;99.90;;;;;;5074400;28;20206;-71
2023/01/22 03:43:28;;;;;;;1999.90;999.90;;;0.90;99.90;;;;;;5075283;28;20440;-71
2023/01/22 03:45:53;;;;;;;1999.90;999.90;;;1.00;99.90;;;;;;5074979;28;20254;-71
2023/01/22 03:48:19;;;;;;;1999.90;999.90;;;1.00;99.90;;;;;;5075275;28;20174;-71
2023/01/22 03:50:44;;;;;;;1999.90;999.90;;;0.90;99.90;;;;;;5074879;28;20644;-71
2023/01/22 03:53:10;;;;;;;1999.90;999.90;;;1.00;99.90;;;;;;5074902;28;20183;-70
2023/01/22 03:55:35;;;;;;;1999.90;999.90;;;1.00;99.90;;;;;;5074886;28;20163;-70
2023/01/22 03:58:01;;;;;;;1999.90;999.90;;;0.90;99.90;;;;;;5074882;28;20171;-70
2023/01/22 04:00:28;;;;;;;1999.90;999.90;;;0.90;99.90;;;;;;5074669;28;20543;-70
2023/01/22 04:02:53;;;;;;;1999.90;999.90;;;0.80;99.90;;;;;;5073957;28;20201;-70
2023/01/22 04:05:19;;;;;;;1999.90;999.90;;;0.80;99.90;;;;;;5074780;28;20163;-71
2023/01/22 04:07:45;;;;;;;1999.90;999.90;;;0.90;99.90;;;;;;5074892;28;20174;-72
2023/01/22 04:10:10;;;;;;;1999.90;999.90;;;0.90;99.90;;;;;;5074601;28;20232;-71
2023/01/22 04:12:36;;;;;;;1999.90;999.90;;;0.80;99.90;;;;;;5074655;28;20188;-72
2023/01/22 04:15:01;;;;;;;1999.90;999.90;;;0.80;99.90;;;;;;5074604;28;20171;-71
2023/01/22 04:17:27;;;;;;;1999.90;999.90;;;0.90;99.90;;;;;;5074542;28;20167;-71
2023/01/22 04:19:52;;;;;;;1999.90;999.90;;;0.90;99.90;;;;;;5074712;28;20167;-71
2023/01/22 04:22:18;;;;;;;1999.90;999.90;;;1.00;99.90;;;;;;5074839;28;20274;-71
2023/01/22 04:24:43;;;;;;;1999.90;999.90;;;1.00;99.90;;;;;;5074543;28;20710;-71
2023/01/22 04:27:09;;;;;;;1999.90;999.90;;;1.00;99.90;;;;;;5074204;28;20505;-71
2023/01/22 04:29:35;;;;;;;1999.90;999.90;;;0.90;99.90;;;;;;5074215;28;20167;-71
2023/01/22 04:32:00;;;;;;;1999.90;999.90;;;0.90;99.90;;;;;;5074342;28;20171;-71
2023/01/22 04:34:26;;;;;;;1999.90;999.90;;;0.90;99.90;;;;;;5074009;28;20202;-71
2023/01/22 04:36:51;;;;;;;1999.90;999.90;;;0.80;99.90;;;;;;5074176;28;20587;-71
2023/01/22 04:39:17;;;;;;;1999.90;999.90;;;0.90;99.90;;;;;;5073981;28;20170;-71
2023/01/22 04:41:42;;;;;;;1999.90;999.90;;;0.90;99.90;;;;;;5074066;28;20191;-71
2023/01/22 04:44:08;;;;;;;1999.90;999.90;;;0.90;99.90;;;;;;5073987;28;20194;-71
2023/01/22 04:46:33;;;;;;;1999.90;999.90;;;0.90;99.90;;;;;;5074040;28;20170;-71
2023/01/22 04:48:59;;;;;;;1999.90;999.90;;;0.90;99.90;;;;;;5073843;28;20632;-71
2023/01/22 04:51:25;;;;;;;1999.90;999.90;;;1.00;99.90;;;;;;5073552;28;20178;-71
2023/01/22 04:53:50;;;;;;;1999.90;999.90;;;1.00;99.90;;;;;;5073854;28;20187;-71
2023/01/22 04:56:17;;;;;;;1999.90;999.90;;;1.10;99.90;;;;;;5073784;28;20190;-71
2023/01/22 04:58:42;;;;;;;1999.90;999.90;;;1.10;99.90;;;;;;5073742;28;20174;-71
2023/01/22 05:01:08;;;;;;;1999.90;999.90;;;1.10;99.90;;;;;;5073553;28;20218;-71
2023/01/22 05:03:34;;;;;;;1999.90;999.90;;;1.20;99.90;;;;;;5073640;28;20606;-71
2023/01/22 05:06:05;;;;;;;1999.90;999.90;;;1.20;99.90;;;;;;5073592;28;20190;-71
2023/01/22 05:08:31;;;;;;;1999.90;999.90;;;1.20;99.90;;;;;;5073733;28;20880;-71
2023/01/22 05:11:00;;;;;;;1999.90;999.90;;;1.30;99.90;;;;;;5073350;28;20189;-71
2023/01/22 05:13:26;;;;;;;1999.90;999.90;;;1.30;99.90;;;;;;5073424;28;20184;-71
2023/01/22 05:15:51;;;;;;;1999.90;999.90;;;1.30;99.90;;;;;;5061459;28;20191;-71
2023/01/22 05:18:17;;;;;;;1999.90;999.90;;;1.20;99.90;;;;;;5053509;28;20172;-71
2023/01/22 05:20:43;;;;;;;1999.90;999.90;;;1.20;99.90;;;;;;5053068;28;20172;-71
2023/01/22 05:23:08;;;;;;;1999.90;999.90;;;1.20;99.90;;;;;;5053314;28;20286;-71
2023/01/22 05:25:34;;;;;;;1999.90;999.90;;;1.30;99.90;;;;;;5053294;28;20656;-71
2023/01/22 05:27:59;;;;;;;1999.90;999.90;;;1.20;99.90;;;;;;5053141;28;20179;-71
2023/01/22 05:30:25;;;;;;;1999.90;999.90;;;1.20;99.90;;;;;;5053076;28;20649;-71
2023/01/22 05:32:55;;;;;;;1999.90;999.90;;;1.20;99.90;;;;;;5053148;28;20199;-71
2023/01/22 05:35:21;;;;;;;1999.90;999.90;;;1.30;99.90;;;;;;5053069;28;20266;-71
2023/01/22 05:37:47;;;;;;;1999.90;999.90;;;1.20;99.90;;;;;;5052991;28;20174;-71
2023/01/22 05:40:13;;;;;;;1999.90;999.90;;;1.20;99.90;;;;;;5052906;28;20172;-71
2023/01/22 05:42:38;;;;;;;1999.90;999.90;;;1.30;99.90;;;;;;5052964;28;20609;-71
2023/01/22 05:45:05;;;;;;;1999.90;999.90;;;1.30;99.90;;;;;;5052876;28;20468;-71
2023/01/22 05:47:30;;;;;;;1999.90;999.90;;;1.30;99.90;;;;;;5052993;28;20164;-72
2023/01/22 05:49:56;;;;;;;1999.90;999.90;;;1.30;99.90;;;;;;5052763;28;20171;-71
2023/01/22 05:52:21;;;;;;;1999.90;999.90;;;1.30;99.90;;;;;;5052762;28;20168;-71
2023/01/22 05:54:47;;;;;;;1999.90;999.90;;;1.30;99.90;;;;;;5052695;28;20171;-71
2023/01/22 05:57:12;;;;;;;1999.90;999.90;;;1.30;99.90;;;;;;5052540;28;20172;-71
2023/01/22 05:59:38;;;;;;;1999.90;999.90;;;1.30;99.90;;;;;;5052501;28;20685;-71
2023/01/22 06:02:03;;;;;;;1999.90;999.90;;;1.20;99.90;;;;;;5052038;28;20203;-72
2023/01/22 06:04:29;;;;;;;1999.90;999.90;;;1.20;99.90;;;;;;5052926;28;20258;-71
2023/01/22 06:06:55;;;;;;;1999.90;999.90;;;1.30;99.90;;;;;;5052472;28;20163;-71
2023/01/22 06:09:20;;;;;;;1999.90;999.90;;;1.20;99.90;;;;;;5052369;28;20172;-70
2023/01/22 06:11:46;;;;;;;1999.90;999.90;;;1.30;99.90;;;;;;5052460;28;20179;-70
2023/01/22 06:14:11;;;;;;;1999.90;999.90;;;1.30;99.90;;;;;;5052355;28;20552;-70
2023/01/22 06:16:37;;;;;;;1999.90;999.90;;;1.30;99.90;;;;;;5052422;28;20195;-70
2023/01/22 06:19:02;;;;;;;1999.90;999.90;;;1.20;99.90;;;;;;5052166;28;20168;-70
2023/01/22 06:21:28;;;;;;;1999.90;999.90;;;1.20;99.90;;;;;;5052233;28;20826;-70
2023/01/22 06:23:54;;;;;;;1999.90;999.90;;;1.20;99.90;;;;;;5052121;28;20270;-70
2023/01/22 06:26:19;;;;;;;1999.90;999.90;;;1.20;99.90;;;;;;5052165;28;20168;-70
2023/01/22 06:28:45;;;;;;;1999.90;999.90;;;1.20;99.90;;;;;;5052076;28;20174;-70
2023/01/22 06:31:11;;;;;;;1999.90;999.90;;;1.20;99.90;;;;;;5052094;28;20181;-70
2023/01/22 06:33:37;;;;;;;1999.90;999.90;;;1.20;99.90;;;;;;5051921;28;20631;-70
2023/01/22 06:36:04;;;;;;;1999.90;999.90;;;1.20;99.90;;;;;;5051966;28;20186;-70
2023/01/22 06:38:30;;;;;;;1999.90;999.90;;;1.20;99.90;;;;;;5051938;28;20183;-70
2023/01/22 06:40:57;;;;;;;1999.90;999.90;;;1.20;99.90;;;;;;5051760;28;20199;-70
2023/01/22 06:43:24;;;;;;;1999.90;999.90;;;1.20;99.90;;;;;;5052033;28;20187;-70
2023/01/22 06:45:51;;;;;;;1999.90;999.90;;;1.20;99.90;;;;;;5051846;28;20534;-70
2023/01/22 06:48:16;;;;;;;1999.90;999.90;;;1.20;99.90;;;;;;5052054;28;20639;-70
2023/01/22 06:50:42;;;;;;;1999.90;999.90;;;1.20;99.90;;;;;;5051716;28;20258;-70
2023/01/22 06:53:08;;;;;;;1999.90;999.90;;;1.20;99.90;;;;;;5051748;28;20187;-70
2023/01/22 06:55:34;;;;;;;1999.90;999.90;;;1.30;99.90;;;;;;5051763;28;20171;-70
2023/01/22 06:57:59;;;;;;;1999.90;999.90;;;1.20;99.90;;;;;;5051686;28;20176;-70
2023/01/22 07:00:25;;;;;;;1999.90;999.90;;;1.20;99.90;;;;;;5051670;28;20243;-70
2023/01/22 07:02:51;;;;;;;1999.90;999.90;;;1.20;99.90;;;;;;5051634;28;20211;-70
2023/01/22 07:05:18;;;;;;;1999.90;999.90;;;1.20;99.90;;;;;;5051816;28;20599;-70
2023/01/22 07:07:45;;;;;;;1999.90;999.90;;;1.20;99.90;;;;;;5051544;28;20406;-70
2023/01/22 07:10:11;;;;;;;1999.90;999.90;;;1.10;99.90;;;;;;5051740;28;20180;-70
2023/01/22 07:12:37;;;;;;;1999.90;999.90;;;1.20;99.90;;;;;;5051713;28;20195;-70
2023/01/22 07:15:05;;;;;;;1999.90;999.90;;;1.20;99.90;;;;;;5055329;28;20651;-70
2023/01/22 07:17:31;;;;;;;1999.90;999.90;;;1.20;99.90;;;;;;5055548;28;20254;-70
2023/01/22 07:19:57;;;;;;;1999.90;999.90;;;1.20;99.90;;;;;;5055572;28;20605;-70
2023/01/22 07:22:22;;;;;;;1999.90;999.90;;;1.20;99.90;;;;;;5055379;28;20223;-70
2023/01/22 07:24:48;;;;;;;1999.90;999.90;;;1.20;99.90;;;;;;5055631;28;20632;-70
2023/01/22 07:27:13;;;;;;;1999.90;999.90;;;1.20;99.90;;;;;;5055583;28;20164;-70
2023/01/22 07:29:39;;;;;;;1999.90;999.90;;;1.20;99.90;;;;;;5055303;28;20179;-70
2023/01/22 07:32:05;;;;;;;1999.90;999.90;;;1.20;99.90;;;;;;5055492;28;20168;-70
2023/01/22 07:34:30;;;;;;;1999.90;999.90;;;1.20;99.90;;;;;;5055225;28;20211;-70
2023/01/22 07:36:56;;;;;;;1999.90;999.90;;;1.20;99.90;;;;;;5055251;28;20642;-70
2023/01/22 07:39:21;;;;;;;1999.90;999.90;;;1.60;99.90;;;;;;5055331;28;20168;-70
2023/01/22 07:41:47;;;;;;;1999.90;999.90;;;1.40;99.90;;;;;;5055349;28;20613;-70
2023/01/22 07:44:12;;;;;;;1999.90;999.90;;;1.40;99.90;;;;;;5055166;28;20242;-70
2023/01/22 07:46:38;;;;;;;1999.90;999.90;;;1.40;99.90;;;;;;5055087;28;20599;-70
2023/01/22 07:49:05;;;;;;;1999.90;999.90;;;1.40;99.90;;;;;;5054950;28;20649;-70
2023/01/22 07:51:30;;;;;;;1999.90;999.90;;;1.40;99.90;;;;;;5054922;28;20673;-70
2023/01/22 07:53:56;;;;;;;1999.90;999.90;;;1.50;99.90;;;;;;5055071;28;20219;-71
2023/01/22 07:56:21;;;;;;;1999.90;999.90;;;1.50;99.90;;;;;;5055521;28;20653;-71
2023/01/22 07:58:47;;;;;;;1999.90;999.90;;;1.50;99.90;;;;;;5054841;28;20175;-71
2023/01/22 08:01:13;;;;;;;1999.90;999.90;;;1.50;99.90;;;;;;5054932;28;20234;-71
2023/01/22 08:03:38;;;;;;;1999.90;999.90;;;1.60;99.90;;;;;;5054906;28;20236;-71
2023/01/22 08:06:14;;;;;;;1999.90;999.90;;;1.60;99.90;;;;;;5054656;28;20171;-70
2023/01/22 08:08:41;;;;;;;1999.90;999.90;;;1.70;99.90;;;;;;5054665;28;20596;-71
2023/01/22 08:11:07;;;;;;;1999.90;999.90;;;1.70;99.90;;;;;;5054624;28;20560;-71
2023/01/22 08:13:32;;;;;;;1999.90;999.90;;;1.70;99.90;;;;;;5054578;28;20195;-70
2023/01/22 08:15:58;;;;;;;1999.90;999.90;;;1.70;99.90;;;;;;5054471;28;20167;-71
2023/01/22 08:18:23;;;;;;;1999.90;999.90;;;1.70;99.90;;;;;;5054581;28;20167;-71
2023/01/22 08:20:49;;;;;;;1999.90;999.90;;;1.70;99.90;;;;;;5054238;28;20658;-70
2023/01/22 08:23:14;;;;;;;1999.90;999.90;;;1.80;99.90;;;;;;5054439;28;20261;-71
2023/01/22 08:25:40;;;;;;;1999.90;999.90;;;1.80;99.90;;;;;;5053552;28;20178;-71
2023/01/22 08:28:06;;;;;;;1999.90;999.90;;;1.80;99.90;;;;;;5054438;28;20167;-71
2023/01/22 08:30:33;;;;;;;1999.90;999.90;;;1.80;99.90;;;;;;5054157;28;20229;-71
2023/01/22 08:33:01;;;;;;;1999.90;999.90;;;1.70;99.90;;;;;;5054217;28;20846;-71
2023/01/22 08:35:27;;;;;;;1999.90;999.90;;;1.80;99.90;;;;;;5054119;28;20191;-71
2023/01/22 08:37:53;;;;;;;1999.90;999.90;;;1.80;99.90;;;;;;5054181;28;20175;-72
2023/01/22 08:40:19;;;;;;;1999.90;999.90;;;1.80;99.90;;;;;;5053976;28;20544;-72
2023/01/22 08:42:50;;;;;;;1999.90;999.90;;;1.80;99.90;;;;;;5054006;28;20249;-72
2023/01/22 08:45:15;;;;;;;1999.90;999.90;;;1.80;99.90;;;;;;5054037;28;20230;-72
2023/01/22 08:47:41;;;;;;;1999.90;999.90;;;1.90;99.90;;;;;;5053870;28;20221;-72
2023/01/22 08:50:07;;;;;;;1999.90;999.90;;;1.80;99.90;;;;;;5053822;28;20194;-72
2023/01/22 08:52:33;;;;;;;1999.90;999.90;;;1.70;99.90;;;;;;5053958;28;20680;-71
2023/01/22 08:54:58;;;;;;;1999.90;999.90;;;1.70;99.90;;;;;;5053884;28;20172;-71
2023/01/22 08:57:24;;;;;;;1999.90;999.90;;;1.60;99.90;;;;;;5053726;28;20694;-72
2023/01/22 08:59:49;;;;;;;1999.90;999.90;;;1.50;99.90;;;;;;5053530;28;20198;-72
2023/01/22 09:02:15;;;;;;;1999.90;999.90;;;1.40;99.90;;;;;;5053535;28;20282;-72
2023/01/22 09:04:41;;;;;;;1999.90;999.90;;;1.50;99.90;;;;;;5053670;28;20171;-72
2023/01/22 09:07:07;;;;;;;1999.90;999.90;;;1.50;99.90;;;;;;5053707;28;20175;-72
2023/01/22 09:09:33;;;;;;;1999.90;999.90;;;1.50;99.90;;;;;;5053370;28;20653;-72
2023/01/22 09:11:58;;;;;;;1999.90;999.90;;;1.50;99.90;;;;;;5053645;28;20186;-72
2023/01/22 09:14:24;;;;;;;1999.90;999.90;;;1.40;99.90;;;;;;5053418;28;20262;-71
2023/01/22 09:16:49;;;;;;;1999.90;999.90;;;1.40;99.90;;;;;;5053325;28;20564;-71
2023/01/22 09:19:15;;;;;;;1999.90;999.90;;;1.40;99.90;;;;;;5053223;28;20258;-71
2023/01/22 09:21:41;;;;;;;1999.90;999.90;;;1.40;99.90;;;;;;5053295;28;20207;-71
2023/01/22 09:24:07;;;;;;;1999.90;999.90;;;1.50;99.90;;;;;;5053330;28;20564;-71
2023/01/22 09:26:33;;;;;;;1999.90;999.90;;;1.50;99.90;;;;;;5053185;28;20171;-71
2023/01/22 09:28:59;;;;;;;1999.90;999.90;;;1.60;99.90;;;;;;5053035;28;20176;-71
2023/01/22 09:31:26;;;;;;;1999.90;999.90;;;1.60;99.90;;;;;;5053162;28;21113;-71
2023/01/22 09:33:51;;;;;;;1999.90;999.90;;;1.60;99.90;;;;;;5052895;28;20235;-72
2023/01/22 09:36:17;;;;;;;1999.90;999.90;;;1.60;99.90;;;;;;5052928;28;20649;-71
2023/01/22 09:38:43;;;;;;;1999.90;999.90;;;1.60;99.90;;;;;;5053029;28;20251;-71
2023/01/22 09:41:33;;;;;;;1999.90;999.90;;;1.70;99.90;;;;;;5052741;28;20688;-71
2023/01/22 09:44:22;;;;;;;1999.90;999.90;;;1.70;99.90;;;;;;5052648;28;20525;-71
2023/01/22 09:46:53;;;;;;;1999.90;999.90;;;1.70;99.90;;;;;;5052777;28;20164;-71
2023/01/22 09:49:31;;;;;;;1999.90;999.90;;;1.70;99.90;;;;;;5052803;28;20607;-71
2023/01/22 09:51:59;;;;;;;1999.90;999.90;;;1.70;99.90;;;;;;5052871;28;20252;-72
2023/01/22 09:54:27;;;;;;;1999.90;999.90;;;1.70;99.90;;;;;;5052606;28;20226;-71
2023/01/22 09:56:56;;;;;;;1999.90;999.90;;;1.70;99.90;;;;;;5052562;28;20175;-71
2023/01/22 09:59:48;;;;;;;1999.90;999.90;;;1.80;99.90;;;;;;5052559;28;20186;-72
2023/01/22 10:02:37;;;;;;;1999.90;999.90;;;1.50;99.90;;;;;;5041935;28;20215;-72
2023/01/22 10:05:26;;;;;;;1999.90;999.90;;;1.80;99.90;;;;;;5052190;28;20182;-71
2023/01/22 10:07:59;;;;;;;1999.90;999.90;;;1.80;99.90;;;;;;5052302;28;20168;-71
2023/01/22 10:10:27;;;;;;;1999.90;999.90;;;1.80;99.90;;;;;;5034846;28;20672;-71
2023/01/22 10:12:59;;;;;;;1999.90;999.90;;;1.80;99.90;;;;;;5051987;28;20665;-71
2023/01/22 10:15:26;;;;;;;1999.90;999.90;;;1.90;99.90;;;;;;5052254;28;20175;-71
2023/01/22 10:17:55;;;;;;;1999.90;999.90;;;2.00;99.90;;;;;;5051455;28;20634;-71
2023/01/22 10:20:23;;;;;;;1999.90;999.90;;;2.20;99.90;;;;;;5052037;28;20179;-71
2023/01/22 10:23:21;;;;;;;1999.90;999.90;;;2.20;99.90;;;;;;5250327;22;20213;-71
2023/01/22 10:25:47;;;;;;;1999.90;999.90;;;0.40;99.90;;;;;;5027774;28;20204;-71
2023/01/22 10:28:14;;;;;;;1999.90;999.90;;;2.20;99.90;;;;;;5032687;28;20182;-69
2023/01/22 10:30:48;;;;;;;1999.90;999.90;;;2.30;99.90;;;;;;5033769;28;20175;-69
2023/01/22 10:33:21;;;;;;;1999.90;999.90;;;2.40;99.90;;;;;;5044963;28;20184;-69
2023/01/22 10:35:52;;;;;;;1999.90;999.90;;;2.40;99.90;;;;;;5053869;28;20207;-70
2023/01/22 10:38:29;;;;;;;1999.90;999.90;;;2.60;99.90;;;;;;5051777;28;20151;-69
2023/01/22 10:41:00;;;;;;;1999.90;999.90;;;2.70;99.90;;;;;;5052234;28;20229;-69
2023/01/22 10:43:44;;;;;;;1999.90;999.90;;;3.00;99.90;;;;;;5054297;28;20275;-68
2023/01/22 10:46:21;;;;;;;1999.90;999.90;;;3.10;99.90;;;;;;5052383;28;20546;-72
2023/01/22 10:49:05;;;;;;;1999.90;999.90;;;3.00;99.90;;;;;;5050510;28;20434;-72
2023/01/22 10:51:38;;;;;;;1999.90;999.90;;;3.00;99.90;;;;;;5051674;28;20845;-71
2023/01/22 10:54:21;;;;;;;1999.90;999.90;;;2.90;99.90;;;;;;5051479;28;20188;-72
2023/01/22 10:56:49;;;;;;;1999.90;999.90;;;3.10;99.90;;;;;;5051508;28;20183;-72
2023/01/22 10:59:29;;;;;;;1999.90;999.90;;;3.10;99.90;;;;;;5051561;28;20228;-71
2023/01/22 11:02:01;;;;;;;1999.90;999.90;;;3.00;99.90;;;;;;5051260;28;20210;-70
2023/01/22 11:04:28;;;;;;;1999.90;999.90;;;2.80;99.90;;;;;;5053032;28;20226;-70
2023/01/22 11:07:07;;;;;;;1999.90;999.90;;;2.80;99.90;;;;;;5053297;28;20164;-69
2023/01/22 11:10:16;;;;;;;1999.90;999.90;;;2.80;99.90;;;;;;5051718;28;20579;-72
2023/01/22 11:12:56;;;;;;;1999.90;999.90;;;1.90;99.90;;;;;;5039046;28;20207;-72
2023/01/22 11:15:43;;;;;;;1999.90;999.90;;;2.50;99.90;;;;;;5050905;28;20171;-72
2023/01/22 11:18:29;;;;;;;1999.90;999.90;;;2.40;99.90;;;;;;5050440;28;20236;-72
2023/01/22 11:20:57;;;;;;;1999.90;999.90;;;2.20;99.90;;;;;;5050633;28;20413;-72
2023/01/22 11:23:48;;;;;;;1999.90;999.90;;;2.10;99.90;;;;;;5050824;28;20267;-72
2023/01/22 11:26:35;;;;;;;1999.90;999.90;;;2.10;99.90;;;;;;5050651;28;20180;-72
2023/01/22 11:29:17;;;;;;;1999.90;999.90;;;2.00;99.90;;;;;;5050507;28;20160;-72
2023/01/22 11:32:21;;;;;;;1999.90;999.90;;;1.90;99.90;;;;;;5050173;28;20163;-72
2023/01/22 11:35:12;;;;;;;1999.90;999.90;;;1.90;99.90;;;;;;5050847;28;20505;-72
2023/01/22 11:37:54;;;;;;;1999.90;999.90;;;1.90;99.90;;;;;;5050737;28;20188;-72
2023/01/22 11:40:28;;;;;;;1999.90;999.90;;;1.90;99.90;;;;;;5050200;28;20172;-72
2023/01/22 11:43:12;;;;;;;1999.90;999.90;;;2.00;99.90;;;;;;5050335;28;20705;-72
2023/01/22 11:46:13;;;;;;;1999.90;999.90;;;2.00;99.90;;;;;;5050697;28;20176;-72
2023/01/22 11:48:44;;;;;;;1999.90;999.90;;;2.10;99.90;;;;;;5050732;28;20167;-72
2023/01/22 11:51:10;;;;;;;1999.90;999.90;;;2.10;99.90;;;;;;5050400;28;20184;-72
2023/01/22 11:53:57;;;;;;;1999.90;999.90;;;2.10;99.90;;;;;;5050207;28;20188;-72
2023/01/22 11:57:04;;;;;;;1999.90;999.90;;;2.10;99.90;;;;;;5050580;28;20168;-72
2023/01/22 11:59:45;;;;;;;1999.90;999.90;;;2.00;99.90;;;;;;5023071;28;20205;-71
2023/01/22 12:02:10;;;;;;;1999.90;999.90;;;;;;;;;;5053585;28;20623;-72
2023/01/22 12:04:54;;;;;;;1999.90;999.90;;;2.10;99.90;;;;;;5054140;28;20168;-71
2023/01/22 12:07:28;;;;;;;1999.90;999.90;;;2.00;99.90;;;;;;5054018;28;20406;-71
2023/01/22 12:10:30;;;;;;;1999.90;999.90;;;2.00;99.90;;;;;;5053478;28;20168;-71
2023/01/22 12:13:32;;;;;;;1999.90;999.90;;;2.00;99.90;;;;;;5053953;28;20351;-72
2023/01/22 12:16:06;;;;;;;1999.90;999.90;;;2.00;99.90;;;;;;5053640;28;20167;-72
2023/01/22 12:19:09;;;;;;;1999.90;999.90;;;1.90;99.90;;;;;;5053890;28;20668;-72
2023/01/22 12:22:06;;;;;;;1999.90;999.90;;;2.00;99.90;;;;;;5053790;28;20201;-72
2023/01/22 12:24:40;;;;;;;1999.90;999.90;;;1.90;99.90;;;;;;5053463;28;20207;-72
2023/01/22 12:27:15;;;;;;;1999.90;999.90;;;1.80;99.90;;;;;;5054055;28;20209;-72
2023/01/22 12:29:46;;;;;;;1999.90;999.90;;;1.90;99.90;;;;;;5054012;28;20163;-72